PWSweather.com
Personal Weather Stations
Station Observations
WAIROAHB
Wairoa, Northern Hawkes Bay -NZ 4108

WairoaNorthern Hawkes Bay -NZ 4108

Lat: -39.04516934, Lon: 177.4263989

Elevation: 156

Station Type: WS3083

http://wairoa.net/weather/index.htm

High Low Average
Temperature 79.7°F26.5°C 65.7°F18.7°C 73.3°F22.9°C
Dew Point 68.7°F20.4°C 62.8°F17.1°C 65.1°F18.4°C
Winds 17.4 mph 28.0 kmh Calm Calm 7.0 mph E11.3 kmh E
Wind Gusts 40.3 mph64.9 kmh -- 18.0 mph29.0 kmh
Humidity 96% 59% 76%
Pressure 29.57 in1001.4 mb 29.03 in983.1 mb -
Precipitation 0.20 in5.1 mm - -
Hour Temp Dew Point Humidity Winds Wind Gusts Pressure Precip Precip Rate Daily Precip Total
12:00 AM 69.1°F20.6°C 63.7°F17.6°C 83% 11.4 mph NE18.3 kmh NE 21.3 mph34.3 kmh 29.57 in1001.4 mb 0.00 in0.0 mm 0.00 in0.0 mm 0.00 in0.0 mm
12:10 AM 68.9°F20.5°C 63.6°F17.6°C 83% 7.6 mph NE12.2 kmh NE 16.8 mph27.0 kmh 29.56 in1001.0 mb 0.00 in0.0 mm 0.00 in0.0 mm 0.00 in0.0 mm
12:20 AM 68.9°F20.5°C 63.6°F17.6°C 83% 6.0 mph NE9.7 kmh NE 18.3 mph29.5 kmh 29.55 in1000.7 mb 0.00 in0.0 mm 0.00 in0.0 mm 0.00 in0.0 mm
12:30 AM 68.9°F20.5°C 63.9°F17.7°C 84% 5.4 mph ENE8.7 kmh ENE 14.5 mph23.3 kmh 29.54 in1000.3 mb 0.00 in0.0 mm 0.00 in0.0 mm 0.00 in0.0 mm
12:40 AM 68.9°F20.5°C 63.9°F17.7°C 84% 9.8 mph NE15.8 kmh NE 18.3 mph29.5 kmh 29.53 in1000.0 mb 0.00 in0.0 mm 0.00 in0.0 mm 0.00 in0.0 mm
12:50 AM 68.5°F20.3°C 63.9°F17.7°C 85% 4.5 mph ENE7.2 kmh ENE 19.7 mph31.7 kmh 29.52 in999.7 mb 0.00 in0.0 mm 0.00 in0.0 mm 0.00 in0.0 mm
01:00 AM 68.5°F20.3°C 63.9°F17.7°C 85% 2.2 mph NE3.5 kmh NE 15.2 mph24.5 kmh 29.51 in999.3 mb 0.00 in0.0 mm 0.00 in0.0 mm 0.00 in0.0 mm
01:10 AM 68.4°F20.2°C 64.0°F17.8°C 86% 6.9 mph ENE11.1 kmh ENE 10.7 mph17.2 kmh 29.50 in999.0 mb 0.00 in0.0 mm 0.00 in0.0 mm 0.00 in0.0 mm
01:20 AM 68.9°F20.5°C 64.2°F17.9°C 85% 12.1 mph E19.5 kmh E 19.7 mph31.7 kmh 29.49 in998.6 mb 0.00 in0.0 mm 0.00 in0.0 mm 0.00 in0.0 mm
01:30 AM 69.1°F20.6°C 64.1°F17.8°C 84% 8.3 mph NE13.4 kmh NE 18.3 mph29.5 kmh 29.48 in998.3 mb 0.00 in0.0 mm 0.00 in0.0 mm 0.00 in0.0 mm
01:40 AM 68.9°F20.5°C 63.9°F17.7°C 84% 12.1 mph NE19.5 kmh NE 23.5 mph37.8 kmh 29.48 in998.3 mb 0.00 in0.0 mm 0.00 in0.0 mm 0.00 in0.0 mm
01:50 AM 68.9°F20.5°C 63.6°F17.6°C 83% 9.2 mph NE14.8 kmh NE 22.1 mph35.6 kmh 29.45 in997.3 mb 0.00 in0.0 mm 0.00 in0.0 mm 0.00 in0.0 mm
02:00 AM 68.5°F20.3°C 63.5°F17.5°C 84% 7.6 mph NE12.2 kmh NE 25.1 mph40.4 kmh 29.44 in997.0 mb 0.00 in0.0 mm 0.00 in0.0 mm 0.00 in0.0 mm
02:10 AM 68.2°F20.1°C 63.5°F17.5°C 85% 12.1 mph NE19.5 kmh NE 25.9 mph41.7 kmh 29.44 in997.0 mb 0.00 in0.0 mm 0.00 in0.0 mm 0.00 in0.0 mm
02:20 AM 67.6°F19.8°C 64.0°F17.8°C 88% 12.1 mph NE19.5 kmh NE 20.6 mph33.2 kmh 29.44 in997.0 mb 0.01 in0.3 mm 0.06 in1.5 mm 0.01 in0.3 mm
02:30 AM 67.3°F19.6°C 64.0°F17.8°C 89% 4.5 mph NE7.2 kmh NE 18.3 mph29.5 kmh 29.44 in997.0 mb 0.02 in0.5 mm 0.06 in1.5 mm 0.02 in0.5 mm
02:40 AM 66.7°F19.3°C 64.1°F17.8°C 91% 11.4 mph ENE18.3 kmh ENE 16.8 mph27.0 kmh 29.43 in996.6 mb 0.04 in1.0 mm 0.12 in3.0 mm 0.04 in1.0 mm
02:50 AM 66.2°F19.0°C 64.4°F18.0°C 94% 4.5 mph NE7.2 kmh NE 15.9 mph25.6 kmh 29.42 in996.3 mb 0.05 in1.3 mm 0.06 in1.5 mm 0.05 in1.3 mm
03:00 AM 65.8°F18.8°C 64.4°F18.0°C 95% 6.0 mph E9.7 kmh E 13.0 mph20.9 kmh 29.40 in995.6 mb 0.07 in1.8 mm 0.02 in0.5 mm 0.07 in1.8 mm
03:10 AM 65.8°F18.8°C 64.7°F18.2°C 96% 2.2 mph E3.5 kmh E 9.8 mph15.8 kmh 29.40 in995.6 mb 0.07 in1.8 mm 0.00 in0.0 mm 0.07 in1.8 mm
03:20 AM 65.7°F18.7°C 64.5°F18.1°C 96% 3.8 mph E6.1 kmh E 6.9 mph11.1 kmh 29.39 in995.3 mb 0.06 in1.5 mm 0.00 in0.0 mm 0.07 in1.8 mm
03:30 AM 65.8°F18.8°C 64.7°F18.2°C 96% 3.8 mph ENE6.1 kmh ENE 14.5 mph23.3 kmh 29.39 in995.3 mb 0.05 in1.3 mm 0.00 in0.0 mm 0.07 in1.8 mm
03:40 AM 67.1°F19.5°C 65.0°F18.3°C 93% 10.7 mph NE17.2 kmh NE 15.2 mph24.5 kmh 29.38 in994.9 mb 0.04 in1.0 mm 0.00 in0.0 mm 0.07 in1.8 mm
03:50 AM 67.6°F19.8°C 64.9°F18.3°C 91% 7.6 mph ENE12.2 kmh ENE 16.8 mph27.0 kmh 29.38 in994.9 mb 0.02 in0.5 mm 0.00 in0.0 mm 0.07 in1.8 mm
04:00 AM 67.8°F19.9°C 64.8°F18.2°C 90% 7.6 mph NE12.2 kmh NE 14.5 mph23.3 kmh 29.37 in994.6 mb 0.00 in0.0 mm 0.00 in0.0 mm 0.07 in1.8 mm
04:10 AM 67.5°F19.7°C 64.8°F18.2°C 91% 4.5 mph NE7.2 kmh NE 12.1 mph19.5 kmh 29.36 in994.2 mb 0.00 in0.0 mm 0.00 in0.0 mm 0.07 in1.8 mm
04:20 AM 67.8°F19.9°C 65.1°F18.4°C 91% 6.0 mph NE9.7 kmh NE 12.1 mph19.5 kmh 29.36 in994.2 mb 0.00 in0.0 mm 0.00 in0.0 mm 0.07 in1.8 mm
04:30 AM 68.2°F20.1°C 64.8°F18.2°C 89% 3.8 mph NE6.1 kmh NE 13.6 mph21.9 kmh 29.35 in993.9 mb 0.00 in0.0 mm 0.00 in0.0 mm 0.07 in1.8 mm
04:40 AM 68.2°F20.1°C 64.8°F18.2°C 89% 8.3 mph ENE13.4 kmh ENE 15.2 mph24.5 kmh 29.34 in993.6 mb 0.00 in0.0 mm 0.00 in0.0 mm 0.07 in1.8 mm
04:50 AM 68.4°F20.2°C 64.7°F18.2°C 88% 9.8 mph ENE15.8 kmh ENE 19.0 mph30.6 kmh 29.34 in993.6 mb 0.00 in0.0 mm 0.00 in0.0 mm 0.07 in1.8 mm
05:00 AM 69.1°F20.6°C 65.1°F18.4°C 87% 7.6 mph ENE12.2 kmh ENE 22.8 mph36.7 kmh 29.34 in993.6 mb 0.01 in0.3 mm 0.01 in0.3 mm 0.08 in2.0 mm
05:10 AM 68.9°F20.5°C 64.9°F18.3°C 87% 7.6 mph NE12.2 kmh NE 17.4 mph28.0 kmh 29.34 in993.6 mb 0.01 in0.3 mm 0.00 in0.0 mm 0.08 in2.0 mm
05:40 AM 68.5°F20.3°C 65.2°F18.4°C 89% 7.6 mph NE12.2 kmh NE 17.4 mph28.0 kmh 29.32 in992.9 mb 0.01 in0.3 mm 0.00 in0.0 mm 0.08 in2.0 mm
05:50 AM 69.1°F20.6°C 65.7°F18.7°C 89% 7.6 mph ENE12.2 kmh ENE 17.4 mph28.0 kmh 29.31 in992.6 mb 0.01 in0.3 mm 0.00 in0.0 mm 0.08 in2.0 mm
06:00 AM 69.6°F20.9°C 66.3°F19.1°C 89% 8.3 mph E13.4 kmh E 15.9 mph25.6 kmh 29.31 in992.6 mb 0.00 in0.0 mm 0.00 in0.0 mm 0.08 in2.0 mm
06:10 AM 70.0°F21.1°C 66.0°F18.9°C 87% 5.4 mph NE8.7 kmh NE 12.1 mph19.5 kmh 29.31 in992.6 mb 0.00 in0.0 mm 0.00 in0.0 mm 0.08 in2.0 mm
06:20 AM 70.9°F21.6°C 66.5°F19.2°C 86% 9.8 mph NE15.8 kmh NE 15.2 mph24.5 kmh 29.30 in992.2 mb 0.00 in0.0 mm 0.00 in0.0 mm 0.08 in2.0 mm
06:30 AM 71.6°F22.0°C 66.2°F19.0°C 83% 3.8 mph NE6.1 kmh NE 13.6 mph21.9 kmh 29.30 in992.2 mb 0.00 in0.0 mm 0.00 in0.0 mm 0.08 in2.0 mm
06:40 AM 71.6°F22.0°C 66.2°F19.0°C 83% 3.1 mph NE5.0 kmh NE 6.9 mph11.1 kmh 29.30 in992.2 mb 0.00 in0.0 mm 0.00 in0.0 mm 0.08 in2.0 mm
06:50 AM 71.6°F22.0°C 66.2°F19.0°C 83% 1.6 mph NE2.6 kmh NE 8.3 mph13.4 kmh 29.30 in992.2 mb 0.00 in0.0 mm 0.00 in0.0 mm 0.08 in2.0 mm
07:00 AM 72.7°F22.6°C 67.6°F19.8°C 84% 4.5 mph NE7.2 kmh NE 11.4 mph18.3 kmh 29.29 in991.9 mb 0.00 in0.0 mm 0.00 in0.0 mm 0.08 in2.0 mm
07:10 AM 74.1°F23.4°C 67.6°F19.8°C 80% 5.4 mph NE8.7 kmh NE 13.6 mph21.9 kmh 29.30 in992.2 mb 0.00 in0.0 mm 0.00 in0.0 mm 0.08 in2.0 mm
07:20 AM 74.5°F23.6°C 67.9°F19.9°C 80% 5.4 mph NE8.7 kmh NE 13.0 mph20.9 kmh 29.29 in991.9 mb 0.00 in0.0 mm 0.00 in0.0 mm 0.08 in2.0 mm
07:30 AM 75.4°F24.1°C 67.7°F19.8°C 77% 3.8 mph ENE6.1 kmh ENE 13.6 mph21.9 kmh 29.29 in991.9 mb 0.00 in0.0 mm 0.00 in0.0 mm 0.08 in2.0 mm
07:40 AM 77.0°F25.0°C 68.1°F20.1°C 74% 3.1 mph NE5.0 kmh NE 9.8 mph15.8 kmh 29.29 in991.9 mb 0.00 in0.0 mm 0.00 in0.0 mm 0.08 in2.0 mm
07:50 AM 78.4°F25.8°C 68.7°F20.4°C 72% 10.7 mph NNE17.2 kmh NNE 12.1 mph19.5 kmh 29.29 in991.9 mb 0.00 in0.0 mm 0.00 in0.0 mm 0.08 in2.0 mm
08:00 AM 77.9°F25.5°C 67.0°F19.4°C 69% 10.7 mph N17.2 kmh N 15.2 mph24.5 kmh 29.29 in991.9 mb 0.00 in0.0 mm 0.00 in0.0 mm 0.08 in2.0 mm
08:10 AM 77.5°F25.3°C 67.0°F19.4°C 70% 9.8 mph NNE15.8 kmh NNE 20.6 mph33.2 kmh 29.29 in991.9 mb 0.00 in0.0 mm 0.00 in0.0 mm 0.08 in2.0 mm
08:20 AM 77.9°F25.5°C 67.0°F19.4°C 69% 3.1 mph NNE5.0 kmh NNE 19.0 mph30.6 kmh 29.28 in991.5 mb 0.00 in0.0 mm 0.00 in0.0 mm 0.08 in2.0 mm
08:30 AM 79.2°F26.2°C 67.7°F19.8°C 68% 6.9 mph NE11.1 kmh NE 14.5 mph23.3 kmh 29.27 in991.2 mb 0.00 in0.0 mm 0.00 in0.0 mm 0.08 in2.0 mm
08:40 AM 79.0°F26.1°C 66.3°F19.1°C 65% 5.4 mph NE8.7 kmh NE 18.3 mph29.5 kmh 29.27 in991.2 mb 0.00 in0.0 mm 0.00 in0.0 mm 0.08 in2.0 mm
08:50 AM 78.8°F26.0°C 66.5°F19.2°C 66% 4.5 mph NE7.2 kmh NE 13.6 mph21.9 kmh 29.27 in991.2 mb 0.00 in0.0 mm 0.00 in0.0 mm 0.08 in2.0 mm
09:00 AM 77.5°F25.3°C 66.2°F19.0°C 68% 7.6 mph NE12.2 kmh NE 20.6 mph33.2 kmh 29.27 in991.2 mb 0.00 in0.0 mm 0.00 in0.0 mm 0.08 in2.0 mm
09:10 AM 77.9°F25.5°C 67.8°F19.9°C 71% 7.6 mph NE12.2 kmh NE 13.6 mph21.9 kmh 29.27 in991.2 mb 0.00 in0.0 mm 0.00 in0.0 mm 0.08 in2.0 mm
09:20 AM 78.6°F25.9°C 66.4°F19.1°C 66% 5.4 mph NE8.7 kmh NE 19.0 mph30.6 kmh 29.27 in991.2 mb 0.00 in0.0 mm 0.00 in0.0 mm 0.08 in2.0 mm
09:30 AM 77.9°F25.5°C 65.7°F18.7°C 66% 3.8 mph NNE6.1 kmh NNE 18.3 mph29.5 kmh 29.27 in991.2 mb 0.00 in0.0 mm 0.00 in0.0 mm 0.08 in2.0 mm
09:40 AM 76.8°F24.9°C 66.7°F19.3°C 71% 6.9 mph NE11.1 kmh NE 23.5 mph37.8 kmh 29.26 in990.9 mb 0.00 in0.0 mm 0.00 in0.0 mm 0.08 in2.0 mm
09:50 AM 79.2°F26.2°C 66.4°F19.1°C 65% 6.0 mph NNE9.7 kmh NNE 13.6 mph21.9 kmh 29.26 in990.9 mb 0.00 in0.0 mm 0.00 in0.0 mm 0.08 in2.0 mm
10:00 AM 78.4°F25.8°C 64.4°F18.0°C 62% 10.7 mph N17.2 kmh N 22.1 mph35.6 kmh 29.25 in990.5 mb 0.00 in0.0 mm 0.00 in0.0 mm 0.08 in2.0 mm
10:10 AM 78.1°F25.6°C 64.5°F18.1°C 63% 8.3 mph NE13.4 kmh NE 17.4 mph28.0 kmh 29.25 in990.5 mb 0.00 in0.0 mm 0.00 in0.0 mm 0.08 in2.0 mm
10:20 AM 78.8°F26.0°C 64.7°F18.2°C 62% 11.4 mph NNE18.3 kmh NNE 24.4 mph39.3 kmh 29.25 in990.5 mb 0.00 in0.0 mm 0.00 in0.0 mm 0.08 in2.0 mm
10:30 AM 78.6°F25.9°C 65.0°F18.3°C 63% 5.4 mph NE8.7 kmh NE 21.3 mph34.3 kmh 29.24 in990.2 mb 0.00 in0.0 mm 0.00 in0.0 mm 0.08 in2.0 mm
10:40 AM 79.3°F26.3°C 64.8°F18.2°C 61% 11.4 mph NNE18.3 kmh NNE 19.0 mph30.6 kmh 29.24 in990.2 mb 0.00 in0.0 mm 0.00 in0.0 mm 0.08 in2.0 mm
10:50 AM 79.7°F26.5°C 64.1°F17.8°C 59% 17.4 mph NE28.0 kmh NE 22.8 mph36.7 kmh 29.24 in990.2 mb 0.00 in0.0 mm 0.00 in0.0 mm 0.08 in2.0 mm
11:00 AM 79.7°F26.5°C 65.1°F18.4°C 61% 13.0 mph NNE20.9 kmh NNE 22.8 mph36.7 kmh 29.24 in990.2 mb 0.00 in0.0 mm 0.00 in0.0 mm 0.08 in2.0 mm
11:10 AM 78.6°F25.9°C 64.1°F17.8°C 61% 5.4 mph NNE8.7 kmh NNE 30.4 mph48.9 kmh 29.23 in989.8 mb 0.01 in0.3 mm 0.06 in1.5 mm 0.09 in2.3 mm
11:20 AM 79.3°F26.3°C 64.3°F17.9°C 60% 6.9 mph NNE11.1 kmh NNE 25.9 mph41.7 kmh 29.23 in989.8 mb 0.01 in0.3 mm 0.00 in0.0 mm 0.09 in2.3 mm
11:30 AM 78.6°F25.9°C 63.6°F17.6°C 60% 5.4 mph NE8.7 kmh NE 20.6 mph33.2 kmh 29.23 in989.8 mb 0.01 in0.3 mm 0.00 in0.0 mm 0.09 in2.3 mm
11:40 AM 77.7°F25.4°C 63.2°F17.3°C 61% 12.1 mph NNE19.5 kmh NNE 24.4 mph39.3 kmh 29.22 in989.5 mb 0.01 in0.3 mm 0.00 in0.0 mm 0.09 in2.3 mm
11:50 AM 76.8°F24.9°C 63.3°F17.4°C 63% 9.8 mph N15.8 kmh N 25.1 mph40.4 kmh 29.21 in989.2 mb 0.01 in0.3 mm 0.00 in0.0 mm 0.09 in2.3 mm
12:00 PM 76.6°F24.8°C 63.1°F17.3°C 63% 6.9 mph NE11.1 kmh NE 24.4 mph39.3 kmh 29.21 in989.2 mb 0.01 in0.3 mm 0.00 in0.0 mm 0.09 in2.3 mm
12:10 PM 76.1°F24.5°C 63.1°F17.3°C 64% 5.4 mph NNE8.7 kmh NNE 28.2 mph45.4 kmh 29.20 in988.8 mb 0.00 in0.0 mm 0.00 in0.0 mm 0.09 in2.3 mm
12:20 PM 76.1°F24.5°C 63.1°F17.3°C 64% 5.4 mph NNE8.7 kmh NNE 21.3 mph34.3 kmh 29.19 in988.5 mb 0.00 in0.0 mm 0.00 in0.0 mm 0.09 in2.3 mm
12:30 PM 75.9°F24.4°C 62.9°F17.2°C 64% 9.8 mph N15.8 kmh N 19.0 mph30.6 kmh 29.18 in988.1 mb 0.00 in0.0 mm 0.00 in0.0 mm 0.09 in2.3 mm
12:40 PM 75.4°F24.1°C 62.8°F17.1°C 65% 5.4 mph NNE8.7 kmh NNE 23.5 mph37.8 kmh 29.19 in988.5 mb 0.00 in0.0 mm 0.00 in0.0 mm 0.09 in2.3 mm
12:50 PM 74.5°F23.6°C 63.3°F17.4°C 68% 10.7 mph NNE17.2 kmh NNE 22.1 mph35.6 kmh 29.18 in988.1 mb 0.00 in0.0 mm 0.00 in0.0 mm 0.09 in2.3 mm
01:00 PM 74.1°F23.4°C 62.9°F17.2°C 68% 8.3 mph NNE13.4 kmh NNE 32.0 mph51.5 kmh 29.17 in987.8 mb 0.01 in0.3 mm 0.01 in0.3 mm 0.11 in2.8 mm
01:10 PM 74.7°F23.7°C 63.9°F17.7°C 69% 3.8 mph NNE6.1 kmh NNE 25.1 mph40.4 kmh 29.16 in987.5 mb 0.01 in0.3 mm 0.00 in0.0 mm 0.11 in2.8 mm
01:20 PM 75.0°F23.9°C 63.8°F17.7°C 68% 8.3 mph NE13.4 kmh NE 22.1 mph35.6 kmh 29.16 in987.5 mb 0.02 in0.5 mm 0.06 in1.5 mm 0.12 in3.0 mm
01:30 PM 74.7°F23.7°C 64.3°F17.9°C 70% 9.2 mph N14.8 kmh N 24.4 mph39.3 kmh 29.16 in987.5 mb 0.02 in0.5 mm 0.00 in0.0 mm 0.12 in3.0 mm
01:40 PM 74.1°F23.4°C 64.6°F18.1°C 72% 14.5 mph NNE23.3 kmh NNE 23.5 mph37.8 kmh 29.15 in987.1 mb 0.02 in0.5 mm 0.00 in0.0 mm 0.12 in3.0 mm
01:50 PM 73.9°F23.3°C 64.8°F18.2°C 73% 13.6 mph NNE21.9 kmh NNE 37.4 mph60.2 kmh 29.15 in987.1 mb 0.05 in1.3 mm 0.18 in4.6 mm 0.14 in3.6 mm
02:00 PM 74.3°F23.5°C 64.7°F18.2°C 72% 11.4 mph NE18.3 kmh NE 32.7 mph52.6 kmh 29.15 in987.1 mb 0.04 in1.0 mm 0.00 in0.0 mm 0.14 in3.6 mm
02:10 PM 73.8°F23.2°C 65.4°F18.6°C 75% 9.8 mph NE15.8 kmh NE 21.3 mph34.3 kmh 29.15 in987.1 mb 0.04 in1.0 mm 0.00 in0.0 mm 0.14 in3.6 mm
02:20 PM 73.2°F22.9°C 64.9°F18.3°C 75% 8.3 mph NE13.4 kmh NE 26.6 mph42.8 kmh 29.14 in986.8 mb 0.02 in0.5 mm 0.00 in0.0 mm 0.14 in3.6 mm
02:30 PM 73.2°F22.9°C 64.9°F18.3°C 75% 11.4 mph NE18.3 kmh NE 28.2 mph45.4 kmh 29.14 in986.8 mb 0.04 in1.0 mm 0.12 in3.0 mm 0.15 in3.8 mm
02:40 PM 73.9°F23.3°C 65.6°F18.7°C 75% 5.4 mph NE8.7 kmh NE 23.5 mph37.8 kmh 29.14 in986.8 mb 0.04 in1.0 mm 0.00 in0.0 mm 0.15 in3.8 mm
02:50 PM 74.1°F23.4°C 66.1°F18.9°C 76% 9.2 mph NE14.8 kmh NE 26.6 mph42.8 kmh 29.12 in986.1 mb 0.01 in0.3 mm 0.00 in0.0 mm 0.15 in3.8 mm
03:00 PM 75.6°F24.2°C 66.7°F19.3°C 74% 9.8 mph NE15.8 kmh NE 18.3 mph29.5 kmh 29.12 in986.1 mb 0.01 in0.3 mm 0.00 in0.0 mm 0.15 in3.8 mm
03:10 PM 77.9°F25.5°C 66.5°F19.2°C 68% 9.2 mph ENE14.8 kmh ENE 21.3 mph34.3 kmh 29.12 in986.1 mb 0.01 in0.3 mm 0.00 in0.0 mm 0.15 in3.8 mm
03:20 PM 77.9°F25.5°C 66.5°F19.2°C 68% 15.2 mph NE24.5 kmh NE 28.9 mph46.5 kmh 29.11 in985.8 mb 0.01 in0.3 mm 0.00 in0.0 mm 0.15 in3.8 mm
03:30 PM 77.0°F25.0°C 66.1°F18.9°C 69% 5.4 mph NE8.7 kmh NE 27.3 mph43.9 kmh 29.11 in985.8 mb 0.00 in0.0 mm 0.00 in0.0 mm 0.15 in3.8 mm
03:40 PM 76.1°F24.5°C 65.6°F18.7°C 70% 9.2 mph NE14.8 kmh NE 25.1 mph40.4 kmh 29.10 in985.4 mb 0.00 in0.0 mm 0.00 in0.0 mm 0.15 in3.8 mm
03:50 PM 75.7°F24.3°C 66.5°F19.2°C 73% 8.3 mph NE13.4 kmh NE 23.5 mph37.8 kmh 29.09 in985.1 mb 0.00 in0.0 mm 0.00 in0.0 mm 0.15 in3.8 mm
04:00 PM 75.7°F24.3°C 66.5°F19.2°C 73% 8.3 mph N13.4 kmh N 20.6 mph33.2 kmh 29.08 in984.8 mb 0.00 in0.0 mm 0.00 in0.0 mm 0.15 in3.8 mm
04:10 PM 77.2°F25.1°C 67.1°F19.5°C 71% 10.7 mph N17.2 kmh N 33.6 mph54.1 kmh 29.06 in984.1 mb 0.00 in0.0 mm 0.00 in0.0 mm 0.15 in3.8 mm
04:20 PM 77.2°F25.1°C 66.7°F19.3°C 70% 6.9 mph NNE11.1 kmh NNE 26.6 mph42.8 kmh 29.05 in983.7 mb 0.00 in0.0 mm 0.00 in0.0 mm 0.15 in3.8 mm
04:30 PM 76.8°F24.9°C 66.3°F19.1°C 70% 13.0 mph N20.9 kmh N 29.8 mph48.0 kmh 29.05 in983.7 mb 0.01 in0.3 mm 0.06 in1.5 mm 0.17 in4.3 mm
04:40 PM 76.8°F24.9°C 66.7°F19.3°C 71% 8.3 mph NE13.4 kmh NE 34.9 mph56.2 kmh 29.05 in983.7 mb 0.02 in0.5 mm 0.06 in1.5 mm 0.18 in4.6 mm
04:50 PM 77.5°F25.3°C 66.6°F19.2°C 69% 9.2 mph NE14.8 kmh NE 22.8 mph36.7 kmh 29.04 in983.4 mb 0.02 in0.5 mm 0.00 in0.0 mm 0.18 in4.6 mm
05:00 PM 75.4°F24.1°C 65.8°F18.8°C 72% 7.6 mph NNE12.2 kmh NNE 19.0 mph30.6 kmh 29.05 in983.7 mb 0.02 in0.5 mm 0.00 in0.0 mm 0.18 in4.6 mm
05:10 PM 74.5°F23.6°C 66.5°F19.2°C 76% 1.6 mph NNW2.6 kmh NNW 17.4 mph28.0 kmh 29.06 in984.1 mb 0.02 in0.5 mm 0.00 in0.0 mm 0.18 in4.6 mm
05:20 PM 75.6°F24.2°C 66.3°F19.1°C 73% 6.0 mph NNE9.7 kmh NNE 26.6 mph42.8 kmh 29.06 in984.1 mb 0.02 in0.5 mm 0.00 in0.0 mm 0.18 in4.6 mm
05:30 PM 73.8°F23.2°C 66.1°F18.9°C 77% 6.0 mph NNE9.7 kmh NNE 27.3 mph43.9 kmh 29.05 in983.7 mb 0.01 in0.3 mm 0.00 in0.0 mm 0.18 in4.6 mm
05:40 PM 73.6°F23.1°C 66.3°F19.1°C 78% 13.0 mph N20.9 kmh N 40.3 mph64.9 kmh 29.05 in983.7 mb 0.02 in0.5 mm 0.06 in1.5 mm 0.20 in5.1 mm
05:50 PM 73.2°F22.9°C 65.6°F18.7°C 77% 5.4 mph NNE8.7 kmh NNE 19.7 mph31.7 kmh 29.04 in983.4 mb 0.02 in0.5 mm 0.00 in0.0 mm 0.20 in5.1 mm
06:00 PM 72.9°F22.7°C 65.6°F18.7°C 78% 4.5 mph NNE7.2 kmh NNE 15.2 mph24.5 kmh 29.04 in983.4 mb 0.02 in0.5 mm 0.00 in0.0 mm 0.20 in5.1 mm
06:10 PM 72.7°F22.6°C 65.8°F18.8°C 79% 6.9 mph NNE11.1 kmh NNE 17.4 mph28.0 kmh 29.03 in983.1 mb 0.02 in0.5 mm 0.00 in0.0 mm 0.20 in5.1 mm
06:20 PM 72.7°F22.6°C 65.8°F18.8°C 79% 5.4 mph NE8.7 kmh NE 21.3 mph34.3 kmh 29.03 in983.1 mb 0.02 in0.5 mm 0.00 in0.0 mm 0.20 in5.1 mm
06:30 PM 72.7°F22.6°C 65.8°F18.8°C 79% 5.4 mph NNE8.7 kmh NNE 19.7 mph31.7 kmh 29.04 in983.4 mb 0.02 in0.5 mm 0.00 in0.0 mm 0.20 in5.1 mm
06:40 PM 72.7°F22.6°C 65.8°F18.8°C 79% 4.5 mph N7.2 kmh N 19.7 mph31.7 kmh 29.03 in983.1 mb 0.00 in0.0 mm 0.00 in0.0 mm 0.20 in5.1 mm
06:50 PM 72.7°F22.6°C 65.8°F18.8°C 79% 6.0 mph NNE9.7 kmh NNE 13.6 mph21.9 kmh 29.04 in983.4 mb 0.00 in0.0 mm 0.00 in0.0 mm 0.20 in5.1 mm
07:00 PM 72.5°F22.5°C 65.7°F18.7°C 79% 3.8 mph NNE6.1 kmh NNE 13.0 mph20.9 kmh 29.05 in983.7 mb 0.00 in0.0 mm 0.00 in0.0 mm 0.20 in5.1 mm
07:10 PM 72.7°F22.6°C 65.5°F18.6°C 78% 3.8 mph NNE6.1 kmh NNE 13.0 mph20.9 kmh 29.04 in983.4 mb 0.00 in0.0 mm 0.00 in0.0 mm 0.20 in5.1 mm
07:20 PM 72.9°F22.7°C 65.3°F18.5°C 77% 3.1 mph NNE5.0 kmh NNE 12.1 mph19.5 kmh 29.05 in983.7 mb 0.00 in0.0 mm 0.00 in0.0 mm 0.20 in5.1 mm
07:30 PM 73.0°F22.8°C 65.1°F18.4°C 76% 3.1 mph N5.0 kmh N 9.2 mph14.8 kmh 29.06 in984.1 mb 0.00 in0.0 mm 0.00 in0.0 mm 0.20 in5.1 mm
07:40 PM 74.1°F23.4°C 64.6°F18.1°C 72% 6.0 mph N9.7 kmh N 10.7 mph17.2 kmh 29.06 in984.1 mb 0.00 in0.0 mm 0.00 in0.0 mm 0.20 in5.1 mm
07:50 PM 74.3°F23.5°C 63.9°F17.7°C 70% 9.2 mph N14.8 kmh N 15.2 mph24.5 kmh 29.06 in984.1 mb 0.00 in0.0 mm 0.00 in0.0 mm 0.20 in5.1 mm
08:00 PM 74.3°F23.5°C 64.3°F17.9°C 71% 6.0 mph N9.7 kmh N 13.0 mph20.9 kmh 29.08 in984.8 mb 0.00 in0.0 mm 0.00 in0.0 mm 0.20 in5.1 mm
08:10 PM 74.3°F23.5°C 64.3°F17.9°C 71% 3.8 mph N6.1 kmh N 11.4 mph18.3 kmh 29.07 in984.4 mb 0.00 in0.0 mm 0.00 in0.0 mm 0.20 in5.1 mm
08:20 PM 74.1°F23.4°C 64.2°F17.9°C 71% 6.9 mph N11.1 kmh N 13.6 mph21.9 kmh 29.10 in985.4 mb 0.00 in0.0 mm 0.00 in0.0 mm 0.20 in5.1 mm
08:30 PM 74.3°F23.5°C 64.3°F17.9°C 71% 2.2 mph N3.5 kmh N 13.0 mph20.9 kmh 29.11 in985.8 mb 0.00 in0.0 mm 0.00 in0.0 mm 0.20 in5.1 mm
08:40 PM 74.5°F23.6°C 64.1°F17.8°C 70% 6.0 mph N9.7 kmh N 13.6 mph21.9 kmh 29.12 in986.1 mb 0.00 in0.0 mm 0.00 in0.0 mm 0.20 in5.1 mm
08:50 PM 74.3°F23.5°C 64.3°F17.9°C 71% 4.5 mph W7.2 kmh W 18.3 mph29.5 kmh 29.13 in986.5 mb 0.00 in0.0 mm 0.00 in0.0 mm 0.20 in5.1 mm
09:00 PM 73.9°F23.3°C 64.8°F18.2°C 73% 2.2 mph NNW3.5 kmh NNW 15.9 mph25.6 kmh 29.14 in986.8 mb 0.00 in0.0 mm 0.00 in0.0 mm 0.20 in5.1 mm
09:10 PM 73.2°F22.9°C 64.5°F18.1°C 74% 4.5 mph NNW7.2 kmh NNW 11.4 mph18.3 kmh 29.15 in987.1 mb 0.00 in0.0 mm 0.00 in0.0 mm 0.20 in5.1 mm
09:20 PM 72.9°F22.7°C 64.5°F18.1°C 75% 6.0 mph NNW9.7 kmh NNW 15.2 mph24.5 kmh 29.15 in987.1 mb 0.00 in0.0 mm 0.00 in0.0 mm 0.20 in5.1 mm
09:30 PM 72.3°F22.4°C 64.7°F18.2°C 77% 0.7 mph NW1.1 kmh NW 15.2 mph24.5 kmh 29.16 in987.5 mb 0.00 in0.0 mm 0.00 in0.0 mm 0.20 in5.1 mm
09:40 PM 72.1°F22.3°C 64.6°F18.1°C 77% 3.8 mph NNW6.1 kmh NNW 9.2 mph14.8 kmh 29.16 in987.5 mb 0.00 in0.0 mm 0.00 in0.0 mm 0.20 in5.1 mm
09:50 PM 72.0°F22.2°C 64.8°F18.2°C 78% 2.2 mph N3.5 kmh N 9.8 mph15.8 kmh 29.17 in987.8 mb 0.00 in0.0 mm 0.00 in0.0 mm 0.20 in5.1 mm
10:00 PM 71.8°F22.1°C 64.6°F18.1°C 78% 3.1 mph NNW5.0 kmh NNW 6.0 mph9.7 kmh 29.17 in987.8 mb 0.00 in0.0 mm 0.00 in0.0 mm 0.20 in5.1 mm
10:10 PM 71.8°F22.1°C 64.2°F17.9°C 77% Calm Calm 8.3 mph13.4 kmh 29.18 in988.1 mb 0.00 in0.0 mm 0.00 in0.0 mm 0.20 in5.1 mm
10:20 PM 72.0°F22.2°C 64.0°F17.8°C 76% 0.7 mph N1.1 kmh N 9.2 mph14.8 kmh 29.19 in988.5 mb 0.00 in0.0 mm 0.00 in0.0 mm 0.20 in5.1 mm
10:30 PM 72.1°F22.3°C 63.8°F17.7°C 75% 0.7 mph NNW1.1 kmh NNW 4.5 mph7.2 kmh 29.20 in988.8 mb 0.00 in0.0 mm 0.00 in0.0 mm 0.20 in5.1 mm
10:40 PM 72.1°F22.3°C 63.8°F17.7°C 75% 2.2 mph N3.5 kmh N 6.9 mph11.1 kmh 29.20 in988.8 mb 0.00 in0.0 mm 0.00 in0.0 mm 0.20 in5.1 mm
10:50 PM 72.3°F22.4°C 64.0°F17.8°C 75% 1.6 mph N2.6 kmh N 8.3 mph13.4 kmh 29.20 in988.8 mb 0.00 in0.0 mm 0.00 in0.0 mm 0.20 in5.1 mm
11:00 PM 72.0°F22.2°C 63.6°F17.6°C 75% Calm Calm 8.3 mph13.4 kmh 29.21 in989.2 mb 0.00 in0.0 mm 0.00 in0.0 mm 0.19 in4.8 mm
11:10 PM 72.1°F22.3°C 63.8°F17.7°C 75% 0.7 mph NNW1.1 kmh NNW 5.4 mph8.7 kmh 29.21 in989.2 mb 0.00 in0.0 mm 0.00 in0.0 mm 0.19 in4.8 mm
11:20 PM 72.1°F22.3°C 63.4°F17.4°C 74% Calm Calm 6.0 mph9.7 kmh 29.22 in989.5 mb 0.00 in0.0 mm 0.00 in0.0 mm 0.19 in4.8 mm
11:30 PM 72.1°F22.3°C 63.4°F17.4°C 74% Calm Calm 2.2 mph3.5 kmh 29.23 in989.8 mb 0.00 in0.0 mm 0.00 in0.0 mm 0.19 in4.8 mm
11:40 PM 71.4°F21.9°C 64.2°F17.9°C 78% Calm Calm 3.8 mph6.1 kmh 29.23 in989.8 mb 0.00 in0.0 mm 0.00 in0.0 mm 0.19 in4.8 mm
11:50 PM 71.1°F21.7°C 64.2°F17.9°C 79% Calm Calm -- 29.23 in989.8 mb 0.00 in0.0 mm 0.00 in0.0 mm 0.19 in4.8 mm